sensor_id;sensor_type;location;lat;lon;timestamp;temperature;humidity
4530;DHT22;2277;51.626;7.516;2023-03-24T00:00:12;12.80;99.90
4530;DHT22;2277;51.626;7.516;2023-03-24T00:02:39;12.70;99.90
4530;DHT22;2277;51.626;7.516;2023-03-24T00:05:15;12.60;99.90
4530;DHT22;2277;51.626;7.516;2023-03-24T00:07:41;12.60;99.90
4530;DHT22;2277;51.626;7.516;2023-03-24T00:10:11;12.60;99.90
4530;DHT22;2277;51.626;7.516;2023-03-24T00:12:37;12.60;99.90
4530;DHT22;2277;51.626;7.516;2023-03-24T00:15:05;12.70;99.90
4530;DHT22;2277;51.626;7.516;2023-03-24T00:17:32;12.60;99.90
4530;DHT22;2277;51.626;7.516;2023-03-24T00:20:01;12.70;99.90
4530;DHT22;2277;51.626;7.516;2023-03-24T00:22:32;12.70;99.90
4530;DHT22;2277;51.626;7.516;2023-03-24T00:24:57;12.80;99.90
4530;DHT22;2277;51.626;7.516;2023-03-24T00:27:23;12.80;99.90
4530;DHT22;2277;51.626;7.516;2023-03-24T00:29:49;12.70;99.90
4530;DHT22;2277;51.626;7.516;2023-03-24T00:32:14;12.70;99.90
4530;DHT22;2277;51.626;7.516;2023-03-24T00:34:41;12.50;99.90
4530;DHT22;2277;51.626;7.516;2023-03-24T00:37:08;12.70;99.90
4530;DHT22;2277;51.626;7.516;2023-03-24T00:39:34;12.70;99.90
4530;DHT22;2277;51.626;7.516;2023-03-24T00:42:00;12.60;99.90
4530;DHT22;2277;51.626;7.516;2023-03-24T00:44:28;12.70;99.90
4530;DHT22;2277;51.626;7.516;2023-03-24T00:46:53;12.70;99.90
4530;DHT22;2277;51.626;7.516;2023-03-24T00:49:24;12.80;99.90
4530;DHT22;2277;51.626;7.516;2023-03-24T00:52:08;12.80;99.90
4530;DHT22;2277;51.626;7.516;2023-03-24T00:54:35;12.80;99.90
4530;DHT22;2277;51.626;7.516;2023-03-24T00:57:00;12.80;99.90
4530;DHT22;2277;51.626;7.516;2023-03-24T00:59:28;12.80;99.90
4530;DHT22;2277;51.626;7.516;2023-03-24T01:01:54;12.80;99.90
4530;DHT22;2277;51.626;7.516;2023-03-24T01:04:21;12.70;99.90
4530;DHT22;2277;51.626;7.516;2023-03-24T01:06:51;12.70;99.90
4530;DHT22;2277;51.626;7.516;2023-03-24T01:09:19;12.70;99.90
4530;DHT22;2277;51.626;7.516;2023-03-24T01:11:46;12.80;99.90
4530;DHT22;2277;51.626;7.516;2023-03-24T01:14:12;12.80;99.90
4530;DHT22;2277;51.626;7.516;2023-03-24T01:16:38;12.90;99.90
4530;DHT22;2277;51.626;7.516;2023-03-24T01:19:04;12.90;99.90
4530;DHT22;2277;51.626;7.516;2023-03-24T01:21:31;12.80;99.90
4530;DHT22;2277;51.626;7.516;2023-03-24T01:23:59;12.80;99.90
4530;DHT22;2277;51.626;7.516;2023-03-24T01:26:26;12.80;99.90
4530;DHT22;2277;51.626;7.516;2023-03-24T01:28:52;13.00;99.90
4530;DHT22;2277;51.626;7.516;2023-03-24T01:31:18;13.00;99.90
4530;DHT22;2277;51.626;7.516;2023-03-24T01:33:44;13.00;99.90
4530;DHT22;2277;51.626;7.516;2023-03-24T01:36:10;13.00;99.90
4530;DHT22;2277;51.626;7.516;2023-03-24T01:38:36;13.00;99.90
4530;DHT22;2277;51.626;7.516;2023-03-24T01:41:03;12.90;99.90
4530;DHT22;2277;51.626;7.516;2023-03-24T01:43:31;13.00;99.90
4530;DHT22;2277;51.626;7.516;2023-03-24T01:46:13;13.10;99.90
4530;DHT22;2277;51.626;7.516;2023-03-24T01:51:26;13.00;99.90
4530;DHT22;2277;51.626;7.516;2023-03-24T01:54:04;12.90;99.90
4530;DHT22;2277;51.626;7.516;2023-03-24T01:56:35;12.90;99.90
4530;DHT22;2277;51.626;7.516;2023-03-24T01:59:05;12.90;99.90
4530;DHT22;2277;51.626;7.516;2023-03-24T02:01:31;12.90;99.90
4530;DHT22;2277;51.626;7.516;2023-03-24T02:03:59;12.70;99.90
4530;DHT22;2277;51.626;7.516;2023-03-24T02:06:28;12.70;99.90
4530;DHT22;2277;51.626;7.516;2023-03-24T02:08:57;12.80;99.90
4530;DHT22;2277;51.626;7.516;2023-03-24T02:11:26;12.80;99.90
4530;DHT22;2277;51.626;7.516;2023-03-24T02:13:52;12.80;99.90
4530;DHT22;2277;51.626;7.516;2023-03-24T02:19:31;12.80;99.90
4530;DHT22;2277;51.626;7.516;2023-03-24T02:35:53;12.90;99.90
4530;DHT22;2277;51.626;7.516;2023-03-24T02:52:47;12.90;99.90
4530;DHT22;2277;51.626;7.516;2023-03-24T02:58:04;13.10;99.90
4530;DHT22;2277;51.626;7.516;2023-03-24T03:00:35;13.10;99.90
4530;DHT22;2277;51.626;7.516;2023-03-24T03:03:47;13.10;99.90
4530;DHT22;2277;51.626;7.516;2023-03-24T03:06:22;13.20;99.90
4530;DHT22;2277;51.626;7.516;2023-03-24T03:08:50;13.20;99.90
4530;DHT22;2277;51.626;7.516;2023-03-24T03:11:17;13.20;99.90
4530;DHT22;2277;51.626;7.516;2023-03-24T03:14:08;13.20;99.90
4530;DHT22;2277;51.626;7.516;2023-03-24T03:19:17;13.20;99.90
4530;DHT22;2277;51.626;7.516;2023-03-24T03:21:45;13.20;99.90
4530;DHT22;2277;51.626;7.516;2023-03-24T03:24:26;13.20;99.90
4530;DHT22;2277;51.626;7.516;2023-03-24T03:26:59;13.20;99.90
4530;DHT22;2277;51.626;7.516;2023-03-24T03:29:30;13.10;99.90
4530;DHT22;2277;51.626;7.516;2023-03-24T03:32:01;13.20;99.90
4530;DHT22;2277;51.626;7.516;2023-03-24T03:37:23;13.40;99.90
4530;DHT22;2277;51.626;7.516;2023-03-24T03:40:00;13.30;99.90
4530;DHT22;2277;51.626;7.516;2023-03-24T03:42:27;13.40;99.90
4530;DHT22;2277;51.626;7.516;2023-03-24T03:44:53;13.40;99.90
4530;DHT22;2277;51.626;7.516;2023-03-24T03:47:19;13.40;99.90
4530;DHT22;2277;51.626;7.516;2023-03-24T03:49:47;13.50;99.90
4530;DHT22;2277;51.626;7.516;2023-03-24T03:52:13;13.50;99.90
4530;DHT22;2277;51.626;7.516;2023-03-24T03:54:40;13.50;99.90
4530;DHT22;2277;51.626;7.516;2023-03-24T03:57:07;13.60;99.90
4530;DHT22;2277;51.626;7.516;2023-03-24T03:59:35;13.60;99.90
4530;DHT22;2277;51.626;7.516;2023-03-24T04:02:33;13.50;99.90
4530;DHT22;2277;51.626;7.516;2023-03-24T04:08:03;13.50;99.90
4530;DHT22;2277;51.626;7.516;2023-03-24T04:18:12;13.60;99.90
4530;DHT22;2277;51.626;7.516;2023-03-24T04:26:36;13.60;99.90
4530;DHT22;2277;51.626;7.516;2023-03-24T04:29:07;13.60;99.90
4530;DHT22;2277;51.626;7.516;2023-03-24T04:31:49;13.50;99.90
4530;DHT22;2277;51.626;7.516;2023-03-24T04:34:34;13.50;99.90
4530;DHT22;2277;51.626;7.516;2023-03-24T04:37:07;13.40;99.90
4530;DHT22;2277;51.626;7.516;2023-03-24T04:39:38;13.30;99.90
4530;DHT22;2277;51.626;7.516;2023-03-24T04:42:08;13.30;99.90
4530;DHT22;2277;51.626;7.516;2023-03-24T04:44:35;13.30;99.90
4530;DHT22;2277;51.626;7.516;2023-03-24T04:47:02;13.20;99.90
4530;DHT22;2277;51.626;7.516;2023-03-24T04:49:28;13.20;99.90
4530;DHT22;2277;51.626;7.516;2023-03-24T04:51:54;13.20;99.90
4530;DHT22;2277;51.626;7.516;2023-03-24T04:54:21;13.20;99.90
4530;DHT22;2277;51.626;7.516;2023-03-24T04:56:49;13.30;99.90
4530;DHT22;2277;51.626;7.516;2023-03-24T04:59:15;13.30;99.90
4530;DHT22;2277;51.626;7.516;2023-03-24T05:01:42;13.30;99.90
4530;DHT22;2277;51.626;7.516;2023-03-24T05:04:17;13.30;99.90
4530;DHT22;2277;51.626;7.516;2023-03-24T05:06:43;13.40;99.90
4530;DHT22;2277;51.626;7.516;2023-03-24T05:09:14;13.40;99.90
4530;DHT22;2277;51.626;7.516;2023-03-24T05:11:42;13.40;99.90
4530;DHT22;2277;51.626;7.516;2023-03-24T05:14:08;13.40;99.90
4530;DHT22;2277;51.626;7.516;2023-03-24T05:16:34;13.50;99.90
4530;DHT22;2277;51.626;7.516;2023-03-24T05:19:01;13.60;99.90
4530;DHT22;2277;51.626;7.516;2023-03-24T05:21:27;13.60;99.90
4530;DHT22;2277;51.626;7.516;2023-03-24T05:23:53;13.60;99.90
4530;DHT22;2277;51.626;7.516;2023-03-24T05:26:18;13.70;99.90
4530;DHT22;2277;51.626;7.516;2023-03-24T05:28:44;13.60;99.90
4530;DHT22;2277;51.626;7.516;2023-03-24T05:31:10;13.70;99.90
4530;DHT22;2277;51.626;7.516;2023-03-24T05:33:36;13.70;99.90
4530;DHT22;2277;51.626;7.516;2023-03-24T05:36:02;13.70;99.90
4530;DHT22;2277;51.626;7.516;2023-03-24T05:38:28;13.70;99.90
4530;DHT22;2277;51.626;7.516;2023-03-24T05:41:00;13.80;99.90
4530;DHT22;2277;51.626;7.516;2023-03-24T05:43:26;13.80;99.90
4530;DHT22;2277;51.626;7.516;2023-03-24T05:45:52;13.70;99.90
4530;DHT22;2277;51.626;7.516;2023-03-24T05:48:18;13.70;99.90
4530;DHT22;2277;51.626;7.516;2023-03-24T05:50:44;13.70;99.90
4530;DHT22;2277;51.626;7.516;2023-03-24T05:53:09;13.70;99.90
4530;DHT22;2277;51.626;7.516;2023-03-24T05:55:36;13.60;99.90
4530;DHT22;2277;51.626;7.516;2023-03-24T05:58:02;13.50;99.90
4530;DHT22;2277;51.626;7.516;2023-03-24T06:00:31;13.40;99.90
4530;DHT22;2277;51.626;7.516;2023-03-24T06:02:58;13.40;99.90
4530;DHT22;2277;51.626;7.516;2023-03-24T06:05:24;13.40;99.90
4530;DHT22;2277;51.626;7.516;2023-03-24T06:07:51;13.30;99.90
4530;DHT22;2277;51.626;7.516;2023-03-24T06:10:23;13.20;99.90
4530;DHT22;2277;51.626;7.516;2023-03-24T06:12:51;13.20;99.90
4530;DHT22;2277;51.626;7.516;2023-03-24T06:15:17;13.20;99.90
4530;DHT22;2277;51.626;7.516;2023-03-24T06:17:43;13.10;99.90
4530;DHT22;2277;51.626;7.516;2023-03-24T06:20:10;13.10;99.90
4530;DHT22;2277;51.626;7.516;2023-03-24T06:22:41;13.10;99.90
4530;DHT22;2277;51.626;7.516;2023-03-24T06:25:09;13.10;99.90
4530;DHT22;2277;51.626;7.516;2023-03-24T06:27:35;13.00;99.90
4530;DHT22;2277;51.626;7.516;2023-03-24T06:30:02;12.90;99.90
4530;DHT22;2277;51.626;7.516;2023-03-24T06:32:28;12.90;99.90
4530;DHT22;2277;51.626;7.516;2023-03-24T06:34:53;12.80;99.90
4530;DHT22;2277;51.626;7.516;2023-03-24T06:37:22;12.70;99.90
4530;DHT22;2277;51.626;7.516;2023-03-24T06:39:48;12.60;99.90
4530;DHT22;2277;51.626;7.516;2023-03-24T06:42:14;12.50;99.90
4530;DHT22;2277;51.626;7.516;2023-03-24T06:44:40;12.40;99.90
4530;DHT22;2277;51.626;7.516;2023-03-24T06:47:06;12.40;99.90
4530;DHT22;2277;51.626;7.516;2023-03-24T06:49:31;12.40;99.90
4530;DHT22;2277;51.626;7.516;2023-03-24T06:51:59;12.50;99.90
4530;DHT22;2277;51.626;7.516;2023-03-24T06:54:26;12.40;99.90
4530;DHT22;2277;51.626;7.516;2023-03-24T06:56:52;12.40;99.90
4530;DHT22;2277;51.626;7.516;2023-03-24T06:59:18;12.50;99.90
4530;DHT22;2277;51.626;7.516;2023-03-24T07:01:51;12.60;99.90
4530;DHT22;2277;51.626;7.516;2023-03-24T07:04:16;12.70;99.90
4530;DHT22;2277;51.626;7.516;2023-03-24T07:06:42;12.70;99.90
4530;DHT22;2277;51.626;7.516;2023-03-24T07:09:08;12.80;99.90
4530;DHT22;2277;51.626;7.516;2023-03-24T07:11:33;12.90;99.90
4530;DHT22;2277;51.626;7.516;2023-03-24T07:13:59;12.90;99.90
4530;DHT22;2277;51.626;7.516;2023-03-24T07:16:24;12.90;99.90
4530;DHT22;2277;51.626;7.516;2023-03-24T07:18:50;12.90;99.90
4530;DHT22;2277;51.626;7.516;2023-03-24T07:21:16;12.90;99.90
4530;DHT22;2277;51.626;7.516;2023-03-24T07:23:43;13.00;99.90
4530;DHT22;2277;51.626;7.516;2023-03-24T07:26:08;13.10;99.90
4530;DHT22;2277;51.626;7.516;2023-03-24T07:28:34;13.30;99.90
4530;DHT22;2277;51.626;7.516;2023-03-24T07:31:04;13.40;99.90
4530;DHT22;2277;51.626;7.516;2023-03-24T07:33:31;13.40;99.90
4530;DHT22;2277;51.626;7.516;2023-03-24T07:35:57;13.50;99.90
4530;DHT22;2277;51.626;7.516;2023-03-24T07:38:24;13.60;99.90
4530;DHT22;2277;51.626;7.516;2023-03-24T07:40:51;13.70;99.90
4530;DHT22;2277;51.626;7.516;2023-03-24T07:43:16;13.70;99.90
4530;DHT22;2277;51.626;7.516;2023-03-24T07:45:45;13.90;99.90
4530;DHT22;2277;51.626;7.516;2023-03-24T07:48:11;13.90;99.90
4530;DHT22;2277;51.626;7.516;2023-03-24T07:50:37;14.00;99.90
4530;DHT22;2277;51.626;7.516;2023-03-24T07:53:03;14.20;99.90
4530;DHT22;2277;51.626;7.516;2023-03-24T07:55:28;14.20;99.90
4530;DHT22;2277;51.626;7.516;2023-03-24T07:57:54;14.20;99.90
4530;DHT22;2277;51.626;7.516;2023-03-24T08:00:20;14.30;99.90
4530;DHT22;2277;51.626;7.516;2023-03-24T08:02:49;14.40;99.90
4530;DHT22;2277;51.626;7.516;2023-03-24T08:05:19;14.40;99.90
4530;DHT22;2277;51.626;7.516;2023-03-24T08:07:47;14.50;99.90
4530;DHT22;2277;51.626;7.516;2023-03-24T08:10:18;14.60;99.90
4530;DHT22;2277;51.626;7.516;2023-03-24T08:12:45;14.70;99.90
4530;DHT22;2277;51.626;7.516;2023-03-24T08:15:11;14.70;99.90
4530;DHT22;2277;51.626;7.516;2023-03-24T08:17:37;14.80;99.90
4530;DHT22;2277;51.626;7.516;2023-03-24T08:20:05;14.90;99.90
4530;DHT22;2277;51.626;7.516;2023-03-24T08:22:36;14.90;99.90
4530;DHT22;2277;51.626;7.516;2023-03-24T08:25:04;14.90;99.90
4530;DHT22;2277;51.626;7.516;2023-03-24T08:27:30;14.90;99.90
4530;DHT22;2277;51.626;7.516;2023-03-24T08:29:56;15.00;99.90
4530;DHT22;2277;51.626;7.516;2023-03-24T08:32:22;15.10;99.90
4530;DHT22;2277;51.626;7.516;2023-03-24T08:34:47;15.30;99.90
4530;DHT22;2277;51.626;7.516;2023-03-24T08:37:13;15.30;99.90
4530;DHT22;2277;51.626;7.516;2023-03-24T08:39:39;15.30;99.90
4530;DHT22;2277;51.626;7.516;2023-03-24T08:42:04;15.50;99.90
4530;DHT22;2277;51.626;7.516;2023-03-24T08:44:30;15.60;99.90
4530;DHT22;2277;51.626;7.516;2023-03-24T08:46:56;15.60;99.90
4530;DHT22;2277;51.626;7.516;2023-03-24T08:49:22;15.60;99.90
4530;DHT22;2277;51.626;7.516;2023-03-24T08:51:47;15.70;99.90
4530;DHT22;2277;51.626;7.516;2023-03-24T08:54:13;15.80;99.90
4530;DHT22;2277;51.626;7.516;2023-03-24T08:56:39;15.80;99.90
4530;DHT22;2277;51.626;7.516;2023-03-24T08:59:05;15.80;99.90
4530;DHT22;2277;51.626;7.516;2023-03-24T09:01:31;15.90;99.90
4530;DHT22;2277;51.626;7.516;2023-03-24T09:03:58;15.80;99.90
4530;DHT22;2277;51.626;7.516;2023-03-24T09:06:24;15.60;99.90
4530;DHT22;2277;51.626;7.516;2023-03-24T09:08:52;15.70;99.90
4530;DHT22;2277;51.626;7.516;2023-03-24T09:11:19;15.70;99.90
4530;DHT22;2277;51.626;7.516;2023-03-24T09:13:46;15.80;99.90
4530;DHT22;2277;51.626;7.516;2023-03-24T09:16:12;15.90;99.90
4530;DHT22;2277;51.626;7.516;2023-03-24T09:18:38;16.00;99.90
4530;DHT22;2277;51.626;7.516;2023-03-24T09:21:04;16.10;99.90
4530;DHT22;2277;51.626;7.516;2023-03-24T09:23:30;16.10;99.90
4530;DHT22;2277;51.626;7.516;2023-03-24T09:25:56;16.10;99.90
4530;DHT22;2277;51.626;7.516;2023-03-24T09:28:22;16.20;99.90
4530;DHT22;2277;51.626;7.516;2023-03-24T09:30:48;16.20;99.90
4530;DHT22;2277;51.626;7.516;2023-03-24T09:33:14;16.20;99.90
4530;DHT22;2277;51.626;7.516;2023-03-24T09:35:40;16.10;99.90
4530;DHT22;2277;51.626;7.516;2023-03-24T09:38:05;16.10;99.90
4530;DHT22;2277;51.626;7.516;2023-03-24T09:40:37;16.10;99.90
4530;DHT22;2277;51.626;7.516;2023-03-24T09:43:07;16.00;99.90
4530;DHT22;2277;51.626;7.516;2023-03-24T09:45:36;16.10;99.90
4530;DHT22;2277;51.626;7.516;2023-03-24T09:48:11;16.20;99.90
4530;DHT22;2277;51.626;7.516;2023-03-24T09:50:57;16.00;99.90
4530;DHT22;2277;51.626;7.516;2023-03-24T09:53:41;16.10;99.90
4530;DHT22;2277;51.626;7.516;2023-03-24T09:56:13;16.10;99.90
4530;DHT22;2277;51.626;7.516;2023-03-24T09:58:41;16.00;99.90
4530;DHT22;2277;51.626;7.516;2023-03-24T10:01:12;16.00;99.90
4530;DHT22;2277;51.626;7.516;2023-03-24T10:03:38;16.10;99.90
4530;DHT22;2277;51.626;7.516;2023-03-24T10:06:23;16.20;99.90
4530;DHT22;2277;51.626;7.516;2023-03-24T10:09:16;16.10;99.90
4530;DHT22;2277;51.626;7.516;2023-03-24T10:12:06;16.10;99.90
4530;DHT22;2277;51.626;7.516;2023-03-24T10:26:13;16.60;99.90
4530;DHT22;2277;51.626;7.516;2023-03-24T10:31:15;16.50;99.90
4530;DHT22;2277;51.626;7.516;2023-03-24T10:33:43;16.50;99.90
4530;DHT22;2277;51.626;7.516;2023-03-24T10:36:20;16.40;99.90
4530;DHT22;2277;51.626;7.516;2023-03-24T10:38:46;16.50;99.90
4530;DHT22;2277;51.626;7.516;2023-03-24T10:43:44;16.50;99.90
4530;DHT22;2277;51.626;7.516;2023-03-24T10:46:14;16.50;99.90
4530;DHT22;2277;51.626;7.516;2023-03-24T10:48:46;16.50;99.90
4530;DHT22;2277;51.626;7.516;2023-03-24T10:51:35;16.50;99.90
4530;DHT22;2277;51.626;7.516;2023-03-24T10:54:32;16.50;99.90
4530;DHT22;2277;51.626;7.516;2023-03-24T10:59:51;16.70;99.90
4530;DHT22;2277;51.626;7.516;2023-03-24T11:02:33;16.80;99.90
4530;DHT22;2277;51.626;7.516;2023-03-24T11:05:12;16.90;99.90
4530;DHT22;2277;51.626;7.516;2023-03-24T11:07:41;16.90;99.90
4530;DHT22;2277;51.626;7.516;2023-03-24T11:12:37;16.70;99.90
4530;DHT22;2277;51.626;7.516;2023-03-24T11:15:24;16.60;99.90
4530;DHT22;2277;51.626;7.516;2023-03-24T11:18:11;16.50;99.90
4530;DHT22;2277;51.626;7.516;2023-03-24T11:20:45;16.50;99.90
4530;DHT22;2277;51.626;7.516;2023-03-24T11:25:44;17.00;99.90
4530;DHT22;2277;51.626;7.516;2023-03-24T11:28:17;17.30;99.90
4530;DHT22;2277;51.626;7.516;2023-03-24T11:30:47;17.70;99.90
4530;DHT22;2277;51.626;7.516;2023-03-24T11:33:29;17.90;99.90
4530;DHT22;2277;51.626;7.516;2023-03-24T11:36:00;18.00;99.90
4530;DHT22;2277;51.626;7.516;2023-03-24T11:38:31;17.90;99.90
4530;DHT22;2277;51.626;7.516;2023-03-24T11:41:00;18.10;99.90
4530;DHT22;2277;51.626;7.516;2023-03-24T11:43:29;18.30;99.90
4530;DHT22;2277;51.626;7.516;2023-03-24T11:46:03;18.50;99.90
4530;DHT22;2277;51.626;7.516;2023-03-24T11:48:52;18.60;99.90
4530;DHT22;2277;51.626;7.516;2023-03-24T11:51:29;18.80;99.90
4530;DHT22;2277;51.626;7.516;2023-03-24T11:53:57;18.90;99.90
4530;DHT22;2277;51.626;7.516;2023-03-24T11:59:41;18.80;99.90
4530;DHT22;2277;51.626;7.516;2023-03-24T12:02:22;18.70;99.90
4530;DHT22;2277;51.626;7.516;2023-03-24T12:10:37;18.80;99.90
4530;DHT22;2277;51.626;7.516;2023-03-24T12:13:14;18.90;99.90
4530;DHT22;2277;51.626;7.516;2023-03-24T12:15:55;18.80;99.90
4530;DHT22;2277;51.626;7.516;2023-03-24T12:18:48;18.60;99.90
4530;DHT22;2277;51.626;7.516;2023-03-24T12:21:41;18.70;99.90
4530;DHT22;2277;51.626;7.516;2023-03-24T12:26:41;18.70;99.90
4530;DHT22;2277;51.626;7.516;2023-03-24T12:32:22;18.50;99.90
4530;DHT22;2277;51.626;7.516;2023-03-24T12:45:43;18.30;99.90
4530;DHT22;2277;51.626;7.516;2023-03-24T12:48:53;18.60;99.90
4530;DHT22;2277;51.626;7.516;2023-03-24T12:51:25;18.80;99.90
4530;DHT22;2277;51.626;7.516;2023-03-24T12:56:44;18.80;99.90
4530;DHT22;2277;51.626;7.516;2023-03-24T12:59:16;19.00;99.90
4530;DHT22;2277;51.626;7.516;2023-03-24T13:01:54;19.00;99.90
4530;DHT22;2277;51.626;7.516;2023-03-24T13:04:31;19.00;99.90
4530;DHT22;2277;51.626;7.516;2023-03-24T13:12:04;19.20;99.90
4530;DHT22;2277;51.626;7.516;2023-03-24T13:14:49;19.30;99.90
4530;DHT22;2277;51.626;7.516;2023-03-24T13:17:38;19.20;99.90
4530;DHT22;2277;51.626;7.516;2023-03-24T13:20:11;19.20;99.90
4530;DHT22;2277;51.626;7.516;2023-03-24T13:22:37;19.20;99.90
4530;DHT22;2277;51.626;7.516;2023-03-24T13:25:19;19.10;99.90
4530;DHT22;2277;51.626;7.516;2023-03-24T13:27:49;19.00;99.90
4530;DHT22;2277;51.626;7.516;2023-03-24T13:30:32;18.80;99.90
4530;DHT22;2277;51.626;7.516;2023-03-24T13:36:08;18.40;99.90
4530;DHT22;2277;51.626;7.516;2023-03-24T13:39:01;18.10;99.90
4530;DHT22;2277;51.626;7.516;2023-03-24T13:41:34;18.00;99.90
4530;DHT22;2277;51.626;7.516;2023-03-24T13:44:07;17.90;99.90
4530;DHT22;2277;51.626;7.516;2023-03-24T13:46:39;17.90;99.90
4530;DHT22;2277;51.626;7.516;2023-03-24T13:49:12;18.00;99.90
4530;DHT22;2277;51.626;7.516;2023-03-24T13:51:44;18.10;99.90
4530;DHT22;2277;51.626;7.516;2023-03-24T13:54:19;18.20;99.90
4530;DHT22;2277;51.626;7.516;2023-03-24T14:15:20;17.30;99.90
4530;DHT22;2277;51.626;7.516;2023-03-24T14:17:49;17.10;99.90
4530;DHT22;2277;51.626;7.516;2023-03-24T14:20:35;17.00;99.90
4530;DHT22;2277;51.626;7.516;2023-03-24T14:23:03;16.70;99.90
4530;DHT22;2277;51.626;7.516;2023-03-24T14:25:31;16.40;99.90
4530;DHT22;2277;51.626;7.516;2023-03-24T14:28:32;16.20;99.90
4530;DHT22;2277;51.626;7.516;2023-03-24T14:33:34;16.00;99.90
4530;DHT22;2277;51.626;7.516;2023-03-24T14:36:04;15.90;99.90
4530;DHT22;2277;51.626;7.516;2023-03-24T14:38:35;15.80;99.90
4530;DHT22;2277;51.626;7.516;2023-03-24T14:41:07;15.90;99.90
4530;DHT22;2277;51.626;7.516;2023-03-24T14:49:04;16.30;99.90
4530;DHT22;2277;51.626;7.516;2023-03-24T14:51:41;16.30;99.90
4530;DHT22;2277;51.626;7.516;2023-03-24T14:54:17;16.30;99.90
4530;DHT22;2277;51.626;7.516;2023-03-24T14:56:49;16.10;99.90
4530;DHT22;2277;51.626;7.516;2023-03-24T15:02:31;15.90;99.90
4530;DHT22;2277;51.626;7.516;2023-03-24T15:13:27;15.90;99.90
4530;DHT22;2277;51.626;7.516;2023-03-24T15:15:53;15.90;99.90
4530;DHT22;2277;51.626;7.516;2023-03-24T15:18:19;15.90;99.90
4530;DHT22;2277;51.626;7.516;2023-03-24T15:20:47;16.00;99.90
4530;DHT22;2277;51.626;7.516;2023-03-24T15:23:24;16.00;99.90
4530;DHT22;2277;51.626;7.516;2023-03-24T15:25:51;15.90;99.90
4530;DHT22;2277;51.626;7.516;2023-03-24T15:28:35;15.90;99.90
4530;DHT22;2277;51.626;7.516;2023-03-24T15:31:01;15.80;99.90
4530;DHT22;2277;51.626;7.516;2023-03-24T15:33:27;15.70;99.90
4530;DHT22;2277;51.626;7.516;2023-03-24T15:35:57;15.50;99.90
4530;DHT22;2277;51.626;7.516;2023-03-24T15:38:32;15.50;99.90
4530;DHT22;2277;51.626;7.516;2023-03-24T15:41:02;15.60;99.90
4530;DHT22;2277;51.626;7.516;2023-03-24T15:43:29;15.60;99.90
4530;DHT22;2277;51.626;7.516;2023-03-24T15:45:57;15.60;99.90
4530;DHT22;2277;51.626;7.516;2023-03-24T15:48:32;15.60;99.90
4530;DHT22;2277;51.626;7.516;2023-03-24T15:51:01;15.50;99.90
4530;DHT22;2277;51.626;7.516;2023-03-24T15:53:37;15.50;99.90
4530;DHT22;2277;51.626;7.516;2023-03-24T15:56:13;15.50;99.90
4530;DHT22;2277;51.626;7.516;2023-03-24T16:01:28;15.50;99.90
4530;DHT22;2277;51.626;7.516;2023-03-24T16:03:56;15.50;99.90
4530;DHT22;2277;51.626;7.516;2023-03-24T16:06:31;15.50;99.90
4530;DHT22;2277;51.626;7.516;2023-03-24T16:09:04;15.50;99.90
4530;DHT22;2277;51.626;7.516;2023-03-24T16:11:31;15.50;99.90
4530;DHT22;2277;51.626;7.516;2023-03-24T16:13:57;15.50;99.90
4530;DHT22;2277;51.626;7.516;2023-03-24T16:16:28;15.40;99.90
4530;DHT22;2277;51.626;7.516;2023-03-24T16:18:54;15.30;99.90
4530;DHT22;2277;51.626;7.516;2023-03-24T16:21:28;15.30;99.90
4530;DHT22;2277;51.626;7.516;2023-03-24T16:23:56;15.30;99.90
4530;DHT22;2277;51.626;7.516;2023-03-24T16:26:24;15.30;99.90
4530;DHT22;2277;51.626;7.516;2023-03-24T16:28:51;15.30;99.90
4530;DHT22;2277;51.626;7.516;2023-03-24T16:31:26;15.20;99.90
4530;DHT22;2277;51.626;7.516;2023-03-24T16:33:55;15.00;99.90
4530;DHT22;2277;51.626;7.516;2023-03-24T16:36:21;14.80;99.90
4530;DHT22;2277;51.626;7.516;2023-03-24T16:38:48;14.40;99.90
4530;DHT22;2277;51.626;7.516;2023-03-24T16:41:14;14.10;99.90
4530;DHT22;2277;51.626;7.516;2023-03-24T16:43:44;13.90;99.90
4530;DHT22;2277;51.626;7.516;2023-03-24T16:48:51;13.50;99.90
4530;DHT22;2277;51.626;7.516;2023-03-24T16:51:17;13.40;99.90
4530;DHT22;2277;51.626;7.516;2023-03-24T16:53:44;13.30;99.90
4530;DHT22;2277;51.626;7.516;2023-03-24T16:56:13;13.20;99.90
4530;DHT22;2277;51.626;7.516;2023-03-24T16:58:39;13.10;99.90
4530;DHT22;2277;51.626;7.516;2023-03-24T17:03:56;13.10;99.90
4530;DHT22;2277;51.626;7.516;2023-03-24T17:06:24;13.00;99.90
4530;DHT22;2277;51.626;7.516;2023-03-24T17:08:50;13.00;99.90
4530;DHT22;2277;51.626;7.516;2023-03-24T17:11:20;12.90;99.90
4530;DHT22;2277;51.626;7.516;2023-03-24T17:13:48;13.00;99.90
4530;DHT22;2277;51.626;7.516;2023-03-24T17:16:14;13.00;99.90
4530;DHT22;2277;51.626;7.516;2023-03-24T17:18:40;13.00;99.90
4530;DHT22;2277;51.626;7.516;2023-03-24T17:21:12;13.00;99.90
4530;DHT22;2277;51.626;7.516;2023-03-24T17:23:39;13.00;99.90
4530;DHT22;2277;51.626;7.516;2023-03-24T17:26:05;13.00;99.90
4530;DHT22;2277;51.626;7.516;2023-03-24T17:28:30;13.00;99.90
4530;DHT22;2277;51.626;7.516;2023-03-24T17:30:56;13.00;99.90
4530;DHT22;2277;51.626;7.516;2023-03-24T17:33:22;12.90;99.90
4530;DHT22;2277;51.626;7.516;2023-03-24T17:35:47;12.90;99.90
4530;DHT22;2277;51.626;7.516;2023-03-24T17:38:15;12.90;99.90
4530;DHT22;2277;51.626;7.516;2023-03-24T17:40:42;13.00;99.90
4530;DHT22;2277;51.626;7.516;2023-03-24T17:43:08;13.00;99.90
4530;DHT22;2277;51.626;7.516;2023-03-24T17:45:33;12.90;99.90
4530;DHT22;2277;51.626;7.516;2023-03-24T17:47:59;12.80;99.90
4530;DHT22;2277;51.626;7.516;2023-03-24T17:50:25;12.70;99.90
4530;DHT22;2277;51.626;7.516;2023-03-24T17:52:52;12.60;99.90
4530;DHT22;2277;51.626;7.516;2023-03-24T17:55:17;12.60;99.90
4530;DHT22;2277;51.626;7.516;2023-03-24T17:57:43;12.40;99.90
4530;DHT22;2277;51.626;7.516;2023-03-24T18:00:11;12.40;99.90
4530;DHT22;2277;51.626;7.516;2023-03-24T18:02:38;12.40;99.90
4530;DHT22;2277;51.626;7.516;2023-03-24T18:05:04;12.40;99.90
4530;DHT22;2277;51.626;7.516;2023-03-24T18:07:30;12.40;99.90
4530;DHT22;2277;51.626;7.516;2023-03-24T18:09:57;12.40;99.90
4530;DHT22;2277;51.626;7.516;2023-03-24T18:12:23;12.50;99.90
4530;DHT22;2277;51.626;7.516;2023-03-24T18:14:49;12.50;99.90
4530;DHT22;2277;51.626;7.516;2023-03-24T18:17:14;12.50;99.90
4530;DHT22;2277;51.626;7.516;2023-03-24T18:19:40;12.50;99.90
4530;DHT22;2277;51.626;7.516;2023-03-24T18:22:06;12.40;99.90
4530;DHT22;2277;51.626;7.516;2023-03-24T18:24:31;12.40;99.90
4530;DHT22;2277;51.626;7.516;2023-03-24T18:26:57;12.40;99.90
4530;DHT22;2277;51.626;7.516;2023-03-24T18:29:23;12.30;99.90
4530;DHT22;2277;51.626;7.516;2023-03-24T18:31:49;12.30;99.90
4530;DHT22;2277;51.626;7.516;2023-03-24T18:34:15;12.30;99.90
4530;DHT22;2277;51.626;7.516;2023-03-24T18:36:42;12.30;99.90
4530;DHT22;2277;51.626;7.516;2023-03-24T18:39:11;12.30;99.90
4530;DHT22;2277;51.626;7.516;2023-03-24T18:41:38;12.30;99.90
4530;DHT22;2277;51.626;7.516;2023-03-24T18:44:06;12.40;99.90
4530;DHT22;2277;51.626;7.516;2023-03-24T18:46:32;12.40;99.90
4530;DHT22;2277;51.626;7.516;2023-03-24T18:48:58;12.40;99.90
4530;DHT22;2277;51.626;7.516;2023-03-24T18:51:24;12.30;99.90
4530;DHT22;2277;51.626;7.516;2023-03-24T18:53:51;12.20;99.90
4530;DHT22;2277;51.626;7.516;2023-03-24T18:56:17;12.20;99.90
4530;DHT22;2277;51.626;7.516;2023-03-24T18:58:44;12.00;99.90
4530;DHT22;2277;51.626;7.516;2023-03-24T19:01:13;12.10;99.90
4530;DHT22;2277;51.626;7.516;2023-03-24T19:03:40;12.10;99.90